createdAt,value
2022-11-24T00:02:56.950Z,0.09
2022-11-24T00:07:59.118Z,0.24
2022-11-24T00:13:02.572Z,0.18
2022-11-24T00:18:04.617Z,0.32
2022-11-24T00:23:08.014Z,0.18
2022-11-24T00:28:11.390Z,0.08
2022-11-24T00:33:13.384Z,0.25
2022-11-24T00:38:15.368Z,0.28
2022-11-24T00:43:19.101Z,0.27
2022-11-24T00:48:21.394Z,0.15
2022-11-24T00:53:23.410Z,0.11
2022-11-24T00:58:26.966Z,-0.07
2022-11-24T01:03:29.015Z,-0.13
2022-11-24T01:08:31.158Z,-0.04
2022-11-24T01:13:34.469Z,-0.06
2022-11-24T01:18:36.511Z,-0.19
2022-11-24T01:23:38.685Z,-0.22
2022-11-24T01:28:46.997Z,-0.23
2022-11-24T01:33:49.988Z,-0.17
2022-11-24T01:38:52.192Z,-0.30
2022-11-24T01:43:56.411Z,-0.31
2022-11-24T01:49:01.821Z,-0.27
2022-11-24T01:54:09.204Z,-0.30
2022-11-24T01:59:15.182Z,-0.25
2022-11-24T02:04:23.863Z,-0.17
2022-11-24T02:09:31.187Z,-0.17
2022-11-24T02:14:37.901Z,-0.33
2022-11-24T02:19:48.980Z,-0.41
2022-11-24T02:24:56.229Z,-0.31
2022-11-24T02:29:59.640Z,-0.27
2022-11-24T02:35:02.470Z,-0.34
2022-11-24T02:40:05.572Z,-0.31
2022-11-24T02:45:11.364Z,-0.40
2022-11-24T02:50:13.365Z,-0.31
2022-11-24T02:55:15.546Z,-0.25
2022-11-24T03:00:19.482Z,-0.29
2022-11-24T03:05:21.509Z,-0.26
2022-11-24T03:10:24.475Z,-0.26
2022-11-24T03:15:27.915Z,-0.24
2022-11-24T03:20:30.140Z,-0.30
2022-11-24T03:25:32.184Z,-0.42
2022-11-24T03:30:35.594Z,-0.37
2022-11-24T03:35:37.590Z,-0.34
2022-11-24T03:40:39.652Z,-0.37
2022-11-24T03:45:46.521Z,-0.28
2022-11-24T03:50:54.025Z,-0.26
2022-11-24T03:55:56.799Z,-0.23
2022-11-24T04:01:00.179Z,-0.11
2022-11-24T04:06:02.257Z,-0.39
2022-11-24T04:11:04.613Z,-0.36
2022-11-24T04:16:09.079Z,-0.04
2022-11-24T04:21:11.125Z,-0.38
2022-11-24T04:26:13.806Z,-0.21
2022-11-24T04:31:18.285Z,-0.02
2022-11-24T04:36:20.479Z,-0.07
2022-11-24T04:41:22.500Z,-0.16
2022-11-24T04:46:25.865Z,-0.20
2022-11-24T04:51:27.972Z,-0.51
2022-11-24T04:56:30.004Z,-0.51
2022-11-24T05:01:33.446Z,-0.39
2022-11-24T05:06:39.057Z,-0.25
2022-11-24T05:11:43.279Z,-0.26
2022-11-24T05:16:46.560Z,-0.30
2022-11-24T05:21:48.700Z,0.03
2022-11-24T05:26:51.124Z,-0.01
2022-11-24T05:31:54.519Z,-0.29
2022-11-24T05:37:02.714Z,-0.30
2022-11-24T05:42:25.536Z,-0.53
2022-11-24T05:47:28.835Z,-0.33
2022-11-24T05:52:35.997Z,-0.48
2022-11-24T05:57:39.026Z,-0.47
2022-11-24T06:02:42.369Z,-0.36
2022-11-24T06:07:44.655Z,-0.21
2022-11-24T06:12:47.536Z,-0.04
2022-11-24T06:17:55.672Z,-0.08
2022-11-24T06:22:57.829Z,-0.12
2022-11-24T06:28:03.422Z,-0.03
2022-11-24T06:33:06.703Z,-0.17
2022-11-24T06:38:08.754Z,0.09
2022-11-24T06:43:10.746Z,0.09
2022-11-24T06:48:14.050Z,0.12
2022-11-24T06:53:16.017Z,0.41
2022-11-24T06:58:17.977Z,0.49
2022-11-24T07:03:21.660Z,0.25
2022-11-24T07:08:23.733Z,0.08
2022-11-24T07:13:25.672Z,0.07
2022-11-24T07:18:29.118Z,0.10
2022-11-24T07:23:31.187Z,0.16
2022-11-24T07:28:34.056Z,0.09
2022-11-24T07:33:37.782Z,-0.10
2022-11-24T07:38:40.071Z,-0.19
2022-11-24T07:43:42.232Z,-0.19
2022-11-24T07:48:45.533Z,-0.11
2022-11-24T07:53:47.594Z,-0.11
2022-11-24T08:04:07.007Z,-0.16
2022-11-24T08:09:09.045Z,-0.11
2022-11-24T08:14:10.961Z,-0.02
2022-11-24T08:19:14.278Z,-0.05
2022-11-24T08:24:16.999Z,0.10
2022-11-24T08:29:18.976Z,-0.06
2022-11-24T08:34:23.008Z,0.22
2022-11-24T08:39:24.877Z,0.17
2022-11-24T08:44:28.756Z,0.16
2022-11-24T08:49:32.134Z,0.30
2022-11-24T08:54:34.559Z,0.36
2022-11-24T08:59:36.914Z,0.31
2022-11-24T09:04:40.561Z,0.43
2022-11-24T09:09:42.555Z,0.32
2022-11-24T09:14:44.509Z,0.40
2022-11-24T09:19:48.091Z,0.52
2022-11-24T09:24:50.063Z,0.49
2022-11-24T09:29:52.212Z,0.70
2022-11-24T09:34:55.479Z,0.80
2022-11-24T09:39:57.383Z,0.63
2022-11-24T09:45:48.867Z,0.70
2022-11-24T09:50:49.058Z,0.64
2022-11-24T09:55:53.847Z,0.80
2022-11-24T10:00:57.705Z,0.95
2022-11-24T10:06:04.042Z,0.87
2022-11-24T10:11:12.853Z,0.76
2022-11-24T10:16:26.867Z,0.88
2022-11-24T10:21:47.276Z,0.88
2022-11-24T10:26:54.148Z,1.06
2022-11-24T10:31:57.023Z,1.03
2022-11-24T10:37:06.560Z,1.11
2022-11-24T10:42:17.650Z,1.21
2022-11-24T10:47:22.676Z,1.35
2022-11-24T10:52:28.644Z,1.03
2022-11-24T10:57:33.157Z,1.29
2022-11-24T11:02:37.455Z,1.24
2022-11-24T11:07:41.059Z,1.13
2022-11-24T11:12:45.823Z,1.08
2022-11-24T11:17:50.398Z,1.09
2022-11-24T11:22:56.064Z,1.25
2022-11-24T11:28:26.586Z,1.22
2022-11-24T11:38:54.067Z,1.41
2022-11-24T11:44:09.554Z,1.39
2022-11-24T11:49:13.470Z,1.48
2022-11-24T11:54:30.242Z,1.45
2022-11-24T11:59:47.505Z,1.40
2022-11-24T12:04:53.016Z,1.60
2022-11-24T12:10:03.148Z,1.64
2022-11-24T12:15:14.727Z,1.41
2022-11-24T12:20:46.975Z,1.43
2022-11-24T12:25:57.708Z,1.12
2022-11-24T12:31:08.225Z,1.03
2022-11-24T12:36:16.365Z,0.89
2022-11-24T12:41:45.741Z,0.95
2022-11-24T12:46:56.804Z,0.88
2022-11-24T12:52:03.201Z,0.69
2022-11-24T12:57:12.838Z,0.61
2022-11-24T13:02:24.367Z,0.77
2022-11-24T13:07:39.577Z,0.80
2022-11-24T13:12:54.810Z,0.88
2022-11-24T13:18:08.545Z,0.91
2022-11-24T13:23:25.526Z,0.86
2022-11-24T13:29:13.318Z,0.78
2022-11-24T13:34:56.903Z,0.89
2022-11-24T13:40:00.701Z,0.88
2022-11-24T13:45:05.810Z,0.87
2022-11-24T13:50:23.546Z,0.82
2022-11-24T13:55:33.116Z,0.90
2022-11-24T14:00:58.392Z,0.82
2022-11-24T14:06:02.156Z,0.74
2022-11-24T14:11:13.132Z,0.90
2022-11-24T14:16:18.720Z,0.84
2022-11-24T14:21:25.130Z,0.83
2022-11-24T14:26:33.308Z,0.84
2022-11-24T14:31:37.074Z,1.00
2022-11-24T14:36:39.829Z,0.86
2022-11-24T14:41:44.052Z,0.84
2022-11-24T14:46:48.024Z,0.90
2022-11-24T14:51:55.794Z,0.99
2022-11-24T14:57:00.462Z,0.84
2022-11-24T15:02:38.145Z,0.89
2022-11-24T15:07:43.650Z,0.81
2022-11-24T15:12:52.363Z,0.92
2022-11-24T15:17:57.156Z,0.82
2022-11-24T15:30:58.337Z,0.68
2022-11-24T15:36:01.868Z,0.74
2022-11-24T15:41:17.328Z,0.79
2022-11-24T15:46:19.364Z,0.76
2022-11-24T15:51:25.988Z,0.82
2022-11-24T15:56:30.740Z,0.86
2022-11-24T16:01:34.271Z,0.83
2022-11-24T16:06:37.877Z,0.82
2022-11-24T16:11:39.807Z,0.82
2022-11-24T16:16:41.912Z,0.94
2022-11-24T16:21:47.205Z,0.92
2022-11-24T16:26:49.291Z,0.86
2022-11-24T16:31:51.956Z,0.80
2022-11-24T16:36:55.362Z,0.89
2022-11-24T16:41:57.307Z,0.72
2022-11-24T16:46:59.279Z,0.69
2022-11-24T16:52:02.612Z,0.71
2022-11-24T16:57:04.590Z,0.77
2022-11-24T17:02:07.044Z,0.72
2022-11-24T17:07:10.686Z,0.80
2022-11-24T17:12:12.745Z,0.67
2022-11-24T17:17:14.680Z,0.71
2022-11-24T17:22:18.010Z,0.67
2022-11-24T17:27:19.982Z,0.65
2022-11-24T17:32:22.400Z,0.74
2022-11-24T17:37:25.705Z,0.70
2022-11-24T17:42:27.670Z,0.75
2022-11-24T17:47:30.195Z,0.80
2022-11-24T17:52:33.527Z,0.78
2022-11-24T17:57:35.506Z,0.62
2022-11-24T18:02:37.953Z,0.52
2022-11-24T18:07:41.483Z,0.42
2022-11-24T18:12:43.659Z,0.45
2022-11-24T18:17:45.640Z,0.61
2022-11-24T18:23:05.233Z,0.48
2022-11-24T18:28:08.211Z,0.42
2022-11-24T18:33:10.187Z,0.44
2022-11-24T18:38:13.541Z,0.53
2022-11-24T18:43:15.500Z,0.58
2022-11-24T18:48:17.480Z,0.53
2022-11-24T18:53:22.212Z,0.41
2022-11-24T18:58:25.053Z,0.38
2022-11-24T19:03:27.044Z,0.30
2022-11-24T19:08:30.438Z,0.29
2022-11-24T19:13:32.615Z,0.24
2022-11-24T19:18:34.573Z,0.46
2022-11-24T19:23:37.997Z,0.46
2022-11-24T19:28:39.984Z,0.43
2022-11-24T19:33:42.292Z,0.73
2022-11-24T19:38:52.457Z,0.56
2022-11-24T19:43:54.973Z,0.74
2022-11-24T19:48:59.975Z,0.66
2022-11-24T19:54:04.951Z,0.73
2022-11-24T19:59:07.016Z,1.05
2022-11-24T20:04:11.512Z,1.05
2022-11-24T20:09:16.376Z,1.16
2022-11-24T20:14:19.370Z,1.24
2022-11-24T20:19:21.417Z,1.41
2022-11-24T20:24:24.985Z,1.08
2022-11-24T20:29:29.089Z,0.88
2022-11-24T20:34:31.133Z,0.74
2022-11-24T20:39:34.487Z,0.84
2022-11-24T20:44:36.817Z,1.00
2022-11-24T20:49:39.016Z,1.10
2022-11-24T20:54:42.308Z,1.30
2022-11-24T20:59:44.268Z,1.18
2022-11-24T21:04:46.510Z,0.94
2022-11-24T21:09:49.804Z,0.73
2022-11-24T21:14:51.803Z,0.79
2022-11-24T21:19:59.596Z,0.83
2022-11-24T21:25:04.656Z,0.96
2022-11-24T21:30:07.906Z,1.02
2022-11-24T21:35:10.169Z,1.25
2022-11-24T21:40:14.992Z,1.05
2022-11-24T21:45:16.974Z,0.95
2022-11-24T21:50:18.943Z,0.71
2022-11-24T21:55:22.235Z,0.89
2022-11-24T22:00:24.644Z,0.71
2022-11-24T22:05:26.569Z,0.63
2022-11-24T22:10:29.858Z,0.63
2022-11-24T22:15:31.848Z,0.68
2022-11-24T22:20:33.993Z,0.87
2022-11-24T22:25:37.472Z,1.11
2022-11-24T22:30:39.393Z,1.27
2022-11-24T22:35:41.324Z,1.35
2022-11-24T22:40:44.603Z,1.43
2022-11-24T22:45:46.776Z,1.43
2022-11-24T22:50:48.740Z,1.33
2022-11-24T22:55:52.003Z,1.39
2022-11-24T23:00:54.653Z,1.53
2022-11-24T23:05:59.105Z,1.68
2022-11-24T23:11:04.424Z,1.65
2022-11-24T23:16:08.582Z,1.65
2022-11-24T23:21:12.212Z,1.44
2022-11-24T23:26:17.311Z,1.70
2022-11-24T23:31:21.499Z,1.91
2022-11-24T23:36:23.582Z,1.85
2022-11-24T23:41:26.852Z,1.97
2022-11-24T23:46:29.192Z,2.08
2022-11-24T23:51:32.657Z,1.91
2022-11-24T23:56:36.055Z,2.29
